sensor_id;sensor_type;location;lat;lon;timestamp;P1;durP1;ratioP1;P2;durP2;ratioP2
74876;SDS011;64660;44.786;37.680;2022-12-07T02:27:38;16.00;;;5.83;;
74876;SDS011;64660;44.786;37.680;2022-12-07T02:30:25;14.43;;;4.38;;
74876;SDS011;64660;44.786;37.680;2022-12-07T02:33:10;14.98;;;5.07;;
74876;SDS011;64660;44.786;37.680;2022-12-07T02:38:51;13.57;;;4.82;;
74876;SDS011;64660;44.786;37.680;2022-12-07T02:41:42;19.87;;;6.10;;
74876;SDS011;64660;44.786;37.680;2022-12-07T02:44:20;17.40;;;5.55;;
74876;SDS011;64660;44.786;37.680;2022-12-07T02:47:05;13.93;;;5.30;;
74876;SDS011;64660;44.786;37.680;2022-12-07T02:49:47;17.25;;;6.07;;
74876;SDS011;64660;44.786;37.680;2022-12-07T02:52:25;14.45;;;3.83;;
74876;SDS011;64660;44.786;37.680;2022-12-07T02:54:52;20.27;;;6.33;;
74876;SDS011;64660;44.786;37.680;2022-12-07T02:57:34;13.90;;;4.03;;
74876;SDS011;64660;44.786;37.680;2022-12-07T03:00:17;17.88;;;5.95;;
74876;SDS011;64660;44.786;37.680;2022-12-07T03:03:04;16.38;;;5.50;;
74876;SDS011;64660;44.786;37.680;2022-12-07T03:08:56;11.57;;;4.03;;
74876;SDS011;64660;44.786;37.680;2022-12-07T03:11:46;17.92;;;6.50;;
74876;SDS011;64660;44.786;37.680;2022-12-07T03:14:31;17.65;;;5.35;;
74876;SDS011;64660;44.786;37.680;2022-12-07T03:17:10;19.40;;;7.45;;
74876;SDS011;64660;44.786;37.680;2022-12-07T03:19:47;17.45;;;6.57;;
74876;SDS011;64660;44.786;37.680;2022-12-07T03:22:26;17.70;;;6.87;;
74876;SDS011;64660;44.786;37.680;2022-12-07T03:25:07;15.40;;;5.80;;
74876;SDS011;64660;44.786;37.680;2022-12-07T03:27:48;13.63;;;5.63;;
74876;SDS011;64660;44.786;37.680;2022-12-07T03:30:33;13.60;;;5.40;;
74876;SDS011;64660;44.786;37.680;2022-12-07T03:33:23;13.68;;;5.40;;
74876;SDS011;64660;44.786;37.680;2022-12-07T03:36:07;20.23;;;7.13;;
74876;SDS011;64660;44.786;37.680;2022-12-07T03:38:53;13.02;;;4.70;;
74876;SDS011;64660;44.786;37.680;2022-12-07T03:41:46;14.57;;;5.22;;
74876;SDS011;64660;44.786;37.680;2022-12-07T03:44:15;14.60;;;5.55;;
74876;SDS011;64660;44.786;37.680;2022-12-07T03:47:03;21.40;;;6.30;;
74876;SDS011;64660;44.786;37.680;2022-12-07T03:49:59;12.87;;;4.93;;
74876;SDS011;64660;44.786;37.680;2022-12-07T03:52:52;27.00;;;9.35;;
74876;SDS011;64660;44.786;37.680;2022-12-07T03:55:29;24.13;;;8.50;;
74876;SDS011;64660;44.786;37.680;2022-12-07T03:58:12;17.80;;;7.75;;
74876;SDS011;64660;44.786;37.680;2022-12-07T04:01:09;19.15;;;8.48;;
74876;SDS011;64660;44.786;37.680;2022-12-07T04:03:38;29.47;;;9.67;;
74876;SDS011;64660;44.786;37.680;2022-12-07T04:06:06;19.60;;;6.50;;
74876;SDS011;64660;44.786;37.680;2022-12-07T04:08:33;24.95;;;7.70;;
74876;SDS011;64660;44.786;37.680;2022-12-07T04:11:00;42.97;;;13.38;;
74876;SDS011;64660;44.786;37.680;2022-12-07T04:13:37;44.78;;;14.38;;
74876;SDS011;64660;44.786;37.680;2022-12-07T04:16:32;47.23;;;15.03;;
74876;SDS011;64660;44.786;37.680;2022-12-07T04:19:09;28.45;;;11.73;;
74876;SDS011;64660;44.786;37.680;2022-12-07T04:21:38;30.45;;;9.13;;
74876;SDS011;64660;44.786;37.680;2022-12-07T04:24:06;31.92;;;8.63;;
74876;SDS011;64660;44.786;37.680;2022-12-07T04:26:36;26.77;;;9.55;;
74876;SDS011;64660;44.786;37.680;2022-12-07T04:29:02;25.10;;;9.30;;
74876;SDS011;64660;44.786;37.680;2022-12-07T04:38:56;44.13;;;11.52;;
74876;SDS011;64660;44.786;37.680;2022-12-07T04:41:27;42.50;;;10.13;;
74876;SDS011;64660;44.786;37.680;2022-12-07T04:43:56;29.13;;;8.93;;
74876;SDS011;64660;44.786;37.680;2022-12-07T04:46:28;33.45;;;9.88;;
74876;SDS011;64660;44.786;37.680;2022-12-07T04:49:07;40.20;;;11.82;;
74876;SDS011;64660;44.786;37.680;2022-12-07T04:51:36;29.10;;;9.75;;
74876;SDS011;64660;44.786;37.680;2022-12-07T04:54:06;34.10;;;10.97;;
74876;SDS011;64660;44.786;37.680;2022-12-07T04:56:32;49.10;;;10.02;;
74876;SDS011;64660;44.786;37.680;2022-12-07T04:59:10;40.35;;;10.48;;
74876;SDS011;64660;44.786;37.680;2022-12-07T05:01:38;37.25;;;12.45;;
74876;SDS011;64660;44.786;37.680;2022-12-07T05:04:08;48.00;;;11.23;;
74876;SDS011;64660;44.786;37.680;2022-12-07T05:06:37;32.50;;;9.13;;
74876;SDS011;64660;44.786;37.680;2022-12-07T05:09:06;36.70;;;13.77;;
74876;SDS011;64660;44.786;37.680;2022-12-07T05:11:32;28.88;;;12.05;;
74876;SDS011;64660;44.786;37.680;2022-12-07T05:14:11;23.42;;;8.80;;
74876;SDS011;64660;44.786;37.680;2022-12-07T05:16:49;27.85;;;10.20;;
74876;SDS011;64660;44.786;37.680;2022-12-07T05:19:27;31.50;;;9.10;;
74876;SDS011;64660;44.786;37.680;2022-12-07T05:21:56;37.63;;;8.18;;
74876;SDS011;64660;44.786;37.680;2022-12-07T05:24:25;33.78;;;9.48;;
74876;SDS011;64660;44.786;37.680;2022-12-07T05:26:56;31.52;;;9.65;;
74876;SDS011;64660;44.786;37.680;2022-12-07T05:29:26;47.90;;;15.98;;
74876;SDS011;64660;44.786;37.680;2022-12-07T05:31:55;46.63;;;20.03;;
74876;SDS011;64660;44.786;37.680;2022-12-07T05:34:22;25.20;;;5.53;;
74876;SDS011;64660;44.786;37.680;2022-12-07T05:36:52;24.40;;;7.30;;
74876;SDS011;64660;44.786;37.680;2022-12-07T05:39:19;35.50;;;11.38;;
74876;SDS011;64660;44.786;37.680;2022-12-07T05:41:51;38.33;;;9.57;;
74876;SDS011;64660;44.786;37.680;2022-12-07T05:44:41;24.90;;;7.50;;
74876;SDS011;64660;44.786;37.680;2022-12-07T05:47:09;22.90;;;8.00;;
74876;SDS011;64660;44.786;37.680;2022-12-07T05:49:39;33.10;;;8.43;;
74876;SDS011;64660;44.786;37.680;2022-12-07T05:52:09;23.17;;;8.52;;
74876;SDS011;64660;44.786;37.680;2022-12-07T05:54:36;22.05;;;7.65;;
74876;SDS011;64660;44.786;37.680;2022-12-07T05:57:06;29.27;;;7.70;;
74876;SDS011;64660;44.786;37.680;2022-12-07T06:07:30;55.75;;;18.27;;
74876;SDS011;64660;44.786;37.680;2022-12-07T06:09:57;38.65;;;13.25;;
74876;SDS011;64660;44.786;37.680;2022-12-07T06:12:24;48.10;;;18.48;;
74876;SDS011;64660;44.786;37.680;2022-12-07T06:15:16;52.35;;;17.95;;
74876;SDS011;64660;44.786;37.680;2022-12-07T06:17:44;45.58;;;15.95;;
74876;SDS011;64660;44.786;37.680;2022-12-07T06:20:11;58.75;;;19.27;;
74876;SDS011;64660;44.786;37.680;2022-12-07T06:22:41;54.33;;;17.80;;
74876;SDS011;64660;44.786;37.680;2022-12-07T06:25:19;53.58;;;17.17;;
74876;SDS011;64660;44.786;37.680;2022-12-07T06:27:48;59.38;;;18.50;;
